Time;durP1;ratioP1;P1;durP2;ratioP2;P2;SDS_P1;SDS_P2;PMS_P1;PMS_P2;Temp;Humidity;BMP_temperature;BMP_pressure;BME280_temperature;BME280_humidity;BME280_pressure;Samples;Min_cycle;Max_cycle;Signal;HPM_P1;HPM_P2
2021/04/11 00:00:51;;;;;;;3.13;1.25;;;;;;;25.67;15.53;98258.31;5093478;28;20077;-91
2021/04/11 00:03:25;;;;;;;3.13;1.80;;;;;;;25.92;15.20;98254.88;5092635;28;20107;-91
2021/04/11 00:05:52;;;;;;;2.45;1.30;;;;;;;26.54;14.63;98254.34;5088931;28;20032;-90
2021/04/11 00:08:20;;;;;;;5.35;1.80;;;;;;;26.36;15.10;98248.44;5082750;28;20395;-90
2021/04/11 00:11:00;;;;;;;3.97;1.58;;;;;;;26.11;15.07;98248.34;5089116;28;20036;-91
2021/04/11 00:13:32;;;;;;;4.13;1.70;;;;;;;26.27;15.19;98248.31;5082156;28;20503;-90
2021/04/11 00:15:59;;;;;;;3.08;1.30;;;;;;;25.97;15.31;98252.31;5083414;28;20507;-90
2021/04/11 00:18:25;;;;;;;2.60;1.20;;;;;;;26.13;15.33;98245.88;5090716;28;20089;-91
2021/04/11 00:20:52;;;;;;;1.33;1.17;;;;;;;26.44;14.93;98244.16;5088438;28;20059;-91
2021/04/11 00:23:22;;;;;;;3.45;1.40;;;;;;;25.82;15.33;98242.66;5084512;28;20445;-91
2021/04/11 00:25:48;;;;;;;3.60;1.42;;;;;;;25.56;15.48;98242.94;5087351;28;20089;-91
2021/04/11 00:28:16;;;;;;;1.80;1.10;;;;;;;26.18;15.27;98239.72;5083398;28;20028;-91
2021/04/11 00:30:43;;;;;;;2.08;1.48;;;;;;;26.36;14.97;98237.19;5089723;28;20024;-90
2021/04/11 00:33:22;;;;;;;1.77;1.10;;;;;;;26.79;14.52;98250.03;5091215;28;21843;-92
2021/04/11 00:35:53;;;;;;;1.58;1.17;;;;;;;26.93;14.10;98241.94;5082549;28;20039;-91
2021/04/11 00:38:19;;;;;;;2.95;1.00;;;;;;;27.36;13.76;98244.19;5085430;28;21341;-91
2021/04/11 00:40:45;;;;;;;3.53;1.70;;;;;;;27.13;14.01;98236.88;5087560;28;20587;-92
2021/04/11 00:43:14;;;;;;;3.53;1.00;;;;;;;27.54;13.91;98230.31;5090132;28;20035;-91
2021/04/11 00:46:19;;;;;;;1.90;1.00;;;;;;;27.09;14.39;98235.41;5072095;28;20442;-91
2021/04/11 00:48:46;;;;;;;2.10;0.95;;;;;;;27.01;14.27;98236.84;5088186;28;20032;-92
2021/04/11 00:51:15;;;;;;;1.92;1.10;;;;;;;27.08;14.38;98242.28;5083640;28;20032;-92
2021/04/11 00:53:43;;;;;;;3.42;1.00;;;;;;;27.37;13.96;98235.31;5065486;28;20050;-91
2021/04/11 00:56:11;;;;;;;1.88;0.98;;;;;;;27.48;13.94;98229.31;5086142;28;20115;-91
2021/04/11 00:58:37;;;;;;;1.98;1.40;;;;;;;27.28;14.08;98228.75;5087573;28;20572;-91
2021/04/11 01:01:05;;;;;;;4.72;0.88;;;;;;;27.24;14.07;98228.06;5087147;28;20040;-91
2021/04/11 01:03:39;;;;;;;3.45;1.10;;;;;;;27.17;14.29;98231.09;5090756;28;20034;-91
2021/04/11 01:06:13;;;;;;;1.08;0.68;;;;;;;26.86;14.40;98224.47;5090959;28;20047;-90
2021/04/11 01:08:39;;;;;;;1.15;0.90;;;;;;;26.87;14.62;98228.84;5086689;28;20484;-91
2021/04/11 01:11:10;;;;;;;2.00;1.00;;;;;;;26.70;14.38;98228.91;5091178;28;20103;-90
2021/04/11 01:13:40;;;;;;;5.40;1.33;;;;;;;27.02;14.51;98216.69;5095584;28;20036;-90
2021/04/11 01:16:07;;;;;;;2.03;1.20;;;;;;;27.19;14.16;98220.19;5052528;28;20074;-90
2021/04/11 01:18:33;;;;;;;2.10;1.23;;;;;;;26.81;14.90;98227.84;5076214;28;20028;-90
2021/04/11 01:21:06;;;;;;;2.53;1.10;;;;;;;26.64;14.82;98215.84;5063708;28;20066;-92
2021/04/11 01:24:15;;;;;;;2.33;1.35;;;;;;;26.23;15.45;98219.47;5072599;28;20036;-91
2021/04/11 01:26:45;;;;;;;2.47;1.00;;;;;;;26.27;15.37;98220.16;5060204;28;20025;-91
2021/04/11 01:29:12;;;;;;;1.90;0.95;;;;;;;26.78;14.83;98220.28;5069055;28;20132;-91
2021/04/11 01:31:39;;;;;;;1.15;0.88;;;;;;;26.70;14.73;98228.91;5071278;28;20036;-91
2021/04/11 01:34:08;;;;;;;1.75;0.93;;;;;;;26.94;14.47;98231.44;5069788;28;20033;-91
2021/04/11 01:36:36;;;;;;;2.88;1.50;;;;;;;26.42;14.91;98240.25;5069125;28;20105;-91
2021/04/11 01:39:09;;;;;;;2.90;1.20;;;;;;;26.66;14.74;98244.34;5059679;28;20047;-91
2021/04/11 01:41:40;;;;;;;1.08;0.80;;;;;;;26.59;14.80;98242.53;5072836;28;20067;-93
2021/04/11 01:44:08;;;;;;;1.98;1.00;;;;;;;26.73;14.67;98247.75;5044971;28;20051;-91
2021/04/11 01:46:34;;;;;;;2.58;1.40;;;;;;;27.06;14.42;98237.09;5075786;28;20539;-90
2021/04/11 01:49:01;;;;;;;2.42;1.13;;;;;;;27.12;14.29;98228.88;5071717;28;20032;-90
2021/04/11 01:51:37;;;;;;;4.28;0.90;;;;;;;26.48;14.64;98233.63;5070270;28;20034;-91
2021/04/11 01:54:12;;;;;;;3.03;1.00;;;;;;;26.47;14.99;98231.22;5052225;28;20028;-91
2021/04/11 01:56:43;;;;;;;2.47;0.95;;;;;;;26.92;14.28;98228.28;5068633;28;20017;-91
2021/04/11 01:59:31;;;;;;;0.70;0.70;;;;;;;27.24;14.06;98222.41;5072103;28;20043;-91
2021/04/11 02:01:58;;;;;;;1.30;0.90;;;;;;;27.59;13.65;98231.75;5065848;28;20039;-91
2021/04/11 02:04:24;;;;;;;1.38;1.00;;;;;;;27.45;13.88;98226.59;5047447;28;20036;-91
2021/04/11 02:06:53;;;;;;;2.67;1.08;;;;;;;27.30;14.00;98212.97;5065550;28;20028;-91
2021/04/11 02:09:32;;;;;;;1.45;0.80;;;;;;;27.21;13.91;98212.84;5060893;28;20118;-91
2021/04/11 02:12:00;;;;;;;2.30;1.10;;;;;;;26.90;14.54;98220.31;5048257;28;20065;-91
2021/04/11 02:14:27;;;;;;;1.85;0.85;;;;;;;26.84;14.44;98218.50;5053115;28;20048;-91
2021/04/11 02:16:58;;;;;;;2.58;1.08;;;;;;;26.80;14.61;98227.03;5060265;28;20036;-91
2021/04/11 02:19:27;;;;;;;3.08;1.00;;;;;;;26.59;15.02;98227.66;5046563;28;20033;-90
2021/04/11 02:22:06;;;;;;;1.95;0.88;;;;;;;26.12;15.04;98226.59;5062575;28;20052;-90
2021/04/11 02:24:40;;;;;;;2.25;0.93;;;;;;;26.31;14.76;98228.47;5068227;28;20508;-91
2021/04/11 02:27:08;;;;;;;2.03;0.90;;;;;;;26.32;14.79;98224.44;5063465;28;20052;-91
2021/04/11 02:29:35;;;;;;;1.30;0.98;;;;;;;26.16;15.14;98227.31;5056563;28;20083;-91
2021/04/11 02:32:03;;;;;;;3.33;0.82;;;;;;;26.36;14.85;98228.72;5057389;28;20435;-90
2021/04/11 02:34:31;;;;;;;2.45;1.08;;;;;;;26.76;14.21;98229.19;5049582;28;20431;-90
2021/04/11 02:37:18;;;;;;;1.90;0.90;;;;;;;26.64;14.68;98229.91;5057136;28;20083;-90
2021/04/11 02:39:45;;;;;;;1.67;0.93;;;;;;;26.92;14.29;98229.09;5062560;28;20083;-90
2021/04/11 02:42:19;;;;;;;1.10;0.80;;;;;;;27.11;14.07;98218.84;5057776;28;20041;-90
2021/04/11 02:44:48;;;;;;;1.13;0.90;;;;;;;27.10;14.11;98222.88;5056616;28;20059;-91
2021/04/11 02:47:15;;;;;;;1.60;1.05;;;;;;;26.42;14.57;98226.16;5067578;28;20040;-90
2021/04/11 02:49:43;;;;;;;2.08;1.13;;;;;;;26.24;14.85;98223.84;5065232;28;20392;-91
2021/04/11 02:52:39;;;;;;;3.53;1.15;;;;;;;26.37;14.93;98230.28;5058575;28;20034;-91
2021/04/11 02:55:07;;;;;;;2.00;1.10;;;;;;;26.34;14.90;98219.94;5061864;28;20407;-91
2021/04/11 02:57:33;;;;;;;1.73;0.82;;;;;;;26.29;15.12;98222.50;5048258;28;20037;-91
2021/04/11 03:00:00;;;;;;;2.42;1.00;;;;;;;26.37;14.67;98218.28;5049599;28;20385;-90
2021/04/11 03:02:26;;;;;;;3.03;1.10;;;;;;;26.33;14.80;98212.72;5049073;28;20039;-90
2021/04/11 03:04:53;;;;;;;4.55;0.90;;;;;;;26.39;14.68;98215.78;5064076;28;20091;-90
2021/04/11 03:07:28;;;;;;;1.75;1.00;;;;;;;26.37;14.66;98219.03;5065493;28;20081;-90
2021/04/11 03:10:05;;;;;;;3.13;1.20;;;;;;;26.54;14.35;98217.72;5061714;28;20029;-91
2021/04/11 03:12:32;;;;;;;1.60;0.90;;;;;;;26.49;14.50;98228.78;5062272;28;20447;-91
2021/04/11 03:14:59;;;;;;;3.00;1.05;;;;;;;26.32;14.72;98227.25;5068594;28;20065;-90
2021/04/11 03:17:29;;;;;;;2.10;0.90;;;;;;;26.28;14.71;98224.53;5069979;28;20029;-90
2021/04/11 03:20:21;;;;;;;3.38;1.00;;;;;;;26.05;15.02;98221.94;5062779;28;20182;-91
2021/04/11 03:22:52;;;;;;;2.15;1.17;;;;;;;26.09;14.87;98223.41;5074228;28;20033;-91
2021/04/11 03:25:19;;;;;;;1.70;0.82;;;;;;;25.94;15.31;98216.63;5065204;28;20036;-91
2021/04/11 03:27:52;;;;;;;2.63;1.30;;;;;;;26.12;14.71;98224.59;5072408;28;20032;-90
2021/04/11 03:30:21;;;;;;;2.15;1.08;;;;;;;26.24;14.69;98221.03;5070094;28;20762;-90
2021/04/11 03:32:53;;;;;;;3.33;1.10;;;;;;;26.09;14.51;98219.84;5067119;28;20040;-90
2021/04/11 03:35:23;;;;;;;2.08;1.33;;;;;;;26.44;14.56;98218.06;5075987;28;20086;-90
2021/04/11 03:37:52;;;;;;;3.08;1.05;;;;;;;26.57;14.33;98227.31;5074424;28;20535;-90
2021/04/11 03:40:24;;;;;;;1.88;1.02;;;;;;;26.71;13.94;98221.25;5054938;28;20025;-90
2021/04/11 03:42:54;;;;;;;2.60;1.05;;;;;;;26.81;13.95;98223.00;5073945;28;20025;-90
2021/04/11 03:45:21;;;;;;;1.63;1.02;;;;;;;26.52;14.22;98217.41;5074842;28;20384;-90
2021/04/11 03:47:54;;;;;;;1.45;0.90;;;;;;;26.37;14.70;98210.59;5075230;28;20043;-90
2021/04/11 03:50:31;;;;;;;2.45;1.15;;;;;;;26.24;14.54;98215.41;5066996;28;20091;-91
2021/04/11 03:53:18;;;;;;;2.92;1.23;;;;;;;26.46;14.46;98205.13;5061739;28;20033;-90
2021/04/11 03:55:47;;;;;;;2.00;1.17;;;;;;;26.52;14.46;98211.75;5065557;28;20041;-90
2021/04/11 03:58:24;;;;;;;3.05;1.63;;;;;;;26.38;14.67;98205.75;5083482;28;20035;-90
2021/04/11 04:00:54;;;;;;;2.05;1.00;;;;;;;26.25;14.77;98204.94;5064493;28;20035;-90
2021/04/11 04:03:23;;;;;;;3.60;1.25;;;;;;;26.13;14.79;98211.31;5075495;28;20551;-90
2021/04/11 04:05:51;;;;;;;3.25;1.15;;;;;;;25.62;15.47;98204.66;5061013;28;20033;-90
2021/04/11 04:08:17;;;;;;;2.42;1.45;;;;;;;24.88;16.06;98201.59;5065426;28;20488;-90
2021/04/11 04:11:11;;;;;;;3.47;1.23;;;;;;;25.00;16.12;98192.50;5067452;28;20044;-90
2021/04/11 04:14:01;;;;;;;2.53;0.93;;;;;;;25.21;16.04;98200.41;5082199;28;20097;-91
2021/04/11 04:17:11;;;;;;;1.60;0.98;;;;;;;25.56;15.52;98200.75;5066254;28;20031;-90
2021/04/11 04:20:10;;;;;;;2.28;1.33;;;;;;;25.84;15.16;98197.19;5075593;28;20044;-90
2021/04/11 04:22:46;;;;;;;1.55;0.90;;;;;;;25.89;15.35;98202.28;5073249;28;20044;-90
2021/04/11 04:25:36;;;;;;;1.48;1.10;;;;;;;25.78;15.63;98199.78;5068111;28;20029;-90
2021/04/11 04:28:48;;;;;;;1.98;1.33;;;;;;;25.61;15.90;98203.06;5060470;28;20433;-91
2021/04/11 04:31:20;;;;;;;2.47;1.23;;;;;;;25.02;16.40;98192.84;5052405;28;20508;-92
2021/04/11 04:34:17;;;;;;;1.58;1.25;;;;;;;24.59;16.93;98207.06;5074942;28;20489;-91
2021/04/11 04:36:53;;;;;;;2.35;1.15;;;;;;;24.93;16.69;98203.91;5077542;28;20118;-91
2021/04/11 04:39:31;;;;;;;5.85;1.45;;;;;;;24.73;17.03;98201.13;5064671;28;20113;-90
2021/04/11 04:42:21;;;;;;;2.67;1.52;;;;;;;25.38;16.53;98207.63;5067145;28;20043;-90
2021/04/11 04:44:53;;;;;;;1.37;1.13;;;;;;;26.00;16.09;98203.56;5067852;28;20484;-91
2021/04/11 04:47:40;;;;;;;2.08;0.90;;;;;;;26.51;15.62;98203.78;5074060;28;20403;-91
2021/04/11 04:50:22;;;;;;;1.60;0.90;;;;;;;27.00;14.94;98199.44;5065283;28;20127;-91
2021/04/11 04:53:33;;;;;;;3.33;1.60;;;;;;;26.73;15.42;98194.22;5066534;28;20028;-91
2021/04/11 04:56:03;;;;;;;3.90;1.30;;;;;;;27.14;14.80;98195.38;5068997;28;20051;-90
2021/04/11 04:58:42;;;;;;;2.53;1.33;;;;;;;26.73;15.29;98191.41;5069085;28;20035;-90
2021/04/11 05:01:14;;;;;;;1.17;0.95;;;;;;;26.70;15.72;98197.13;5065057;28;20037;-91
2021/04/11 05:03:46;;;;;;;1.55;1.00;;;;;;;26.80;15.68;98187.59;5081973;28;20516;-91
2021/04/11 05:06:32;;;;;;;3.20;0.95;;;;;;;27.31;15.12;98194.78;5072232;28;20036;-91
2021/04/11 05:09:07;;;;;;;2.85;1.00;;;;;;;27.48;15.21;98195.47;5052992;28;20448;-91
2021/04/11 05:11:39;;;;;;;2.67;1.02;;;;;;;26.96;15.57;98189.50;5053739;28;20529;-91
2021/04/11 05:14:11;;;;;;;1.52;0.93;;;;;;;27.49;15.33;98187.81;5057871;28;20044;-91
2021/04/11 05:17:03;;;;;;;1.20;1.00;;;;;;;27.47;15.26;98191.06;5094899;28;20039;-90
2021/04/11 05:19:38;;;;;;;3.88;1.65;;;;;;;27.00;15.81;98199.44;5109461;28;20044;-91
2021/04/11 05:22:17;;;;;;;2.05;1.35;;;;;;;27.66;15.51;98201.28;5094797;28;20121;-91
2021/04/11 05:24:48;;;;;;;3.20;1.02;;;;;;;27.58;15.92;98190.72;5092796;28;20024;-91
2021/04/11 05:27:24;;;;;;;3.25;0.98;;;;;;;27.41;15.86;98190.06;5082468;28;20031;-91
2021/04/11 05:30:15;;;;;;;1.42;0.98;;;;;;;27.77;16.50;98198.13;5089995;28;20039;-91
2021/04/11 05:32:41;;;;;;;1.90;1.13;;;;;;;27.65;15.44;98187.66;5092467;28;20390;-91
2021/04/11 05:35:10;;;;;;;2.65;0.98;;;;;;;28.15;14.94;98195.13;5090671;28;20605;-90
2021/04/11 05:37:42;;;;;;;5.53;2.45;;;;;;;28.19;15.23;98195.81;5073787;28;20036;-91
2021/04/11 05:40:30;;;;;;;4.60;2.47;;;;;;;28.61;15.20;98199.91;5091975;28;20032;-89
2021/04/11 05:43:02;;;;;;;3.47;1.77;;;;;;;29.02;14.30;98199.47;5089133;28;20048;-90
2021/04/11 05:45:58;;;;;;;2.47;1.33;;;;;;;29.12;14.38;98194.63;5089104;28;20476;-90
2021/04/11 05:48:46;;;;;;;4.07;1.70;;;;;;;29.41;14.22;98190.19;5083779;28;20377;-89
2021/04/11 05:51:40;;;;;;;3.92;1.60;;;;;;;30.03;13.51;98195.66;5084600;28;20373;-89
2021/04/11 05:54:21;;;;;;;3.08;1.30;;;;;;;30.04;13.31;98197.22;5069432;28;20036;-89
2021/04/11 05:56:52;;;;;;;1.98;1.15;;;;;;;30.17;13.59;98197.84;5081622;28;20032;-90
2021/04/11 05:59:25;;;;;;;2.63;1.30;;;;;;;30.48;13.54;98192.78;5092406;28;20074;-89
2021/04/11 06:01:55;;;;;;;1.88;1.13;;;;;;;30.15;13.52;98191.88;5086062;28;20020;-89
2021/04/11 06:04:42;;;;;;;3.63;1.10;;;;;;;29.75;13.45;98185.53;5103507;28;20404;-88
2021/04/11 06:07:22;;;;;;;2.22;1.33;;;;;;;29.32;14.02;98187.34;5088785;28;20044;-89
2021/04/11 06:10:01;;;;;;;2.72;1.00;;;;;;;29.93;13.46;98188.41;5085374;28;20035;-88
2021/04/11 06:12:52;;;;;;;1.40;1.08;;;;;;;30.27;13.00;98184.47;5067355;28;20078;-88
2021/04/11 06:15:41;;;;;;;4.63;1.33;;;;;;;30.65;13.09;98185.50;5066644;28;20079;-89
2021/04/11 06:18:09;;;;;;;3.13;1.13;;;;;;;30.86;12.83;98192.22;5068204;28;20382;-91
2021/04/11 06:20:37;;;;;;;1.27;0.90;;;;;;;30.11;13.13;98193.28;5059838;28;20082;-90
2021/04/11 06:23:18;;;;;;;2.40;1.00;;;;;;;30.41;13.20;98184.63;5061441;28;20041;-89
2021/04/11 06:25:53;;;;;;;2.78;1.17;;;;;;;29.90;13.10;98175.19;5060172;28;20048;-91
2021/04/11 06:28:40;;;;;;;1.33;0.90;;;;;;;30.29;13.38;98182.75;5061770;28;20252;-90
2021/04/11 06:31:29;;;;;;;1.70;0.95;;;;;;;30.43;12.84;98178.50;5067389;28;20381;-89
2021/04/11 06:34:17;;;;;;;0.80;0.63;;;;;;;30.00;13.45;98171.91;5068688;28;20036;-90
2021/04/11 06:36:51;;;;;;;2.22;1.00;;;;;;;29.49;13.93;98168.06;5060856;28;20040;-89
2021/04/11 06:39:28;;;;;;;4.35;1.42;;;;;;;29.19;13.85;98168.94;5072435;28;20042;-89
2021/04/11 06:42:21;;;;;;;2.10;0.90;;;;;;;29.50;14.08;98169.63;5074047;28;20032;-91
2021/04/11 06:45:18;;;;;;;1.33;0.98;;;;;;;29.56;14.20;98169.78;5067052;28;20036;-90
2021/04/11 06:48:29;;;;;;;1.55;1.00;;;;;;;28.23;14.55;98163.38;5068424;28;20060;-90
2021/04/11 06:51:32;;;;;;;3.17;1.27;;;;;;;28.51;14.75;98169.97;5064262;28;20082;-90
2021/04/11 06:54:36;;;;;;;1.98;0.82;;;;;;;28.71;14.33;98176.88;5069265;28;20453;-90
2021/04/11 06:57:28;;;;;;;2.80;0.80;;;;;;;29.56;13.49;98176.25;5067548;28;20067;-90
2021/04/11 07:00:15;;;;;;;1.55;0.80;;;;;;;29.34;13.83;98175.56;5071545;28;20039;-90
2021/04/11 07:03:18;;;;;;;1.83;1.00;;;;;;;28.86;14.39;98165.00;5063689;28;20043;-89
2021/04/11 07:06:08;;;;;;;3.67;0.90;;;;;;;30.05;13.39;98170.47;5062805;28;20033;-93
2021/04/11 07:08:57;;;;;;;5.30;1.13;;;;;;;30.27;13.53;98158.97;5070780;28;20037;-94
2021/04/11 07:11:29;;;;;;;1.65;0.55;;;;;;;29.41;14.35;98159.06;5068709;28;20056;-87
2021/04/11 07:14:11;;;;;;;3.60;1.00;;;;;;;29.55;13.79;98160.50;5073862;28;20043;-87
2021/04/11 07:17:16;;;;;;;4.70;0.80;;;;;;;30.31;13.58;98157.56;5072976;28;20032;-87
2021/04/11 07:20:07;;;;;;;1.05;0.63;;;;;;;30.81;13.11;98166.59;5082331;28;20032;-85
2021/04/11 07:22:39;;;;;;;3.63;0.95;;;;;;;29.73;13.34;98165.41;5089389;28;20036;-86
2021/04/11 07:25:21;;;;;;;3.33;1.05;;;;;;;29.97;13.51;98172.03;5083781;28;20040;-87
2021/04/11 07:28:15;;;;;;;2.00;0.90;;;;;;;30.55;13.09;98171.84;5093238;28;20036;-86
2021/04/11 07:31:32;;;;;;;0.95;0.70;;;;;;;30.84;12.77;98180.56;5070582;28;20032;-87
2021/04/11 07:34:27;;;;;;;2.13;0.90;;;;;;;30.83;12.76;98181.06;5048057;28;20040;-87
2021/04/11 07:37:29;;;;;;;1.45;0.80;;;;;;;30.22;12.71;98168.91;5081394;28;20024;-90
2021/04/11 07:40:10;;;;;;;1.70;0.55;;;;;;;31.09;13.15;98168.03;5000140;28;20048;-89
2021/04/11 07:42:52;;;;;;;4.18;0.80;;;;;;;30.94;12.59;98172.84;5063052;28;20060;-95
2021/04/11 07:45:25;;;;;;;1.02;0.80;;;;;;;30.44;12.50;98158.16;5086305;28;20108;-92
2021/04/11 07:48:06;;;;;;;2.13;0.95;;;;;;;30.46;12.66;98164.16;5084223;28;20038;-95
2021/04/11 07:50:52;;;;;;;;;;;;;;;29.36;13.04;98150.41;5088983;28;20099;-92
2021/04/11 07:53:38;;;;;;;1.42;0.90;;;;;;;29.74;13.12;98164.13;5084925;28;21600;-91
2021/04/11 07:56:23;;;;;;;4.25;1.52;;;;;;;29.31;13.91;98162.38;5092555;28;20036;-93
2021/04/11 07:59:33;;;;;;;2.47;1.02;;;;;;;29.93;13.11;98155.22;5082718;28;20097;-93
2021/04/11 08:02:21;;;;;;;2.85;0.95;;;;;;;30.18;13.38;98162.59;5084392;28;20420;-92
2021/04/11 08:05:14;;;;;;;2.72;1.10;;;;;;;30.66;12.90;98155.91;5088403;28;20040;-88
2021/04/11 08:08:18;;;;;;;1.17;0.90;;;;;;;31.44;12.31;98149.28;5090384;28;20107;-88
2021/04/11 08:11:22;;;;;;;1.63;0.70;;;;;;;31.67;12.62;98151.31;5085312;28;20032;-87
2021/04/11 08:13:57;;;;;;;4.65;0.77;;;;;;;31.99;12.36;98149.69;5087553;28;20032;-88
2021/04/11 08:16:36;;;;;;;2.25;0.60;;;;;;;31.15;13.03;98143.44;5078730;28;20480;-87
2021/04/11 08:19:23;;;;;;;1.10;0.50;;;;;;;29.12;13.88;98152.22;5090771;28;20372;-87
2021/04/11 08:21:54;;;;;;;1.13;0.50;;;;;;;30.32;13.95;98161.16;5091625;28;20103;-87
2021/04/11 08:24:29;;;;;;;2.72;0.77;;;;;;;30.27;13.49;98153.31;5086082;28;20038;-88
2021/04/11 08:27:33;;;;;;;2.47;1.08;;;;;;;30.84;13.06;98165.59;5093168;28;20044;-88
2021/04/11 08:29:59;;;;;;;2.60;0.60;;;;;;;31.07;13.40;98156.41;5085579;28;20549;-87
2021/04/11 08:32:52;;;;;;;0.85;0.60;;;;;;;31.64;12.37;98166.50;5090433;28;20029;-87
2021/04/11 08:35:55;;;;;;;0.57;0.52;;;;;;;31.74;11.95;98153.03;5065938;28;20541;-87
2021/04/11 08:38:31;;;;;;;1.42;0.57;;;;;;;32.18;12.20;98164.50;5077586;28;20496;-87
2021/04/11 08:41:17;;;;;;;1.35;0.75;;;;;;;32.29;12.25;98156.97;5076410;28;20094;-87
2021/04/11 08:44:01;;;;;;;2.35;0.70;;;;;;;32.02;12.32;98165.75;5078129;28;20036;-87
2021/04/11 08:47:00;;;;;;;0.73;0.70;;;;;;;32.66;11.86;98163.09;5079257;28;20043;-88
2021/04/11 08:49:30;;;;;;;2.35;0.80;;;;;;;31.68;12.35;98154.94;5071192;28;20222;-87
2021/04/11 08:51:56;;;;;;;1.63;0.57;;;;;;;31.52;12.83;98152.53;5083081;28;20032;-88
2021/04/11 08:54:32;;;;;;;2.00;0.50;;;;;;;31.91;12.18;98143.56;5082762;28;20498;-87
2021/04/11 08:57:23;;;;;;;0.60;0.40;;;;;;;32.85;12.12;98141.69;5082782;28;20077;-88
2021/04/11 08:59:56;;;;;;;1.92;0.60;;;;;;;33.06;11.70;98146.19;5083356;28;20020;-87
2021/04/11 09:02:28;;;;;;;0.75;0.40;;;;;;;33.27;11.24;98136.41;5080035;28;20034;-87
2021/04/11 09:05:16;;;;;;;0.80;0.40;;;;;;;32.84;11.92;98140.09;5081677;28;20016;-87
2021/04/11 09:08:15;;;;;;;1.92;0.73;;;;;;;32.52;12.00;98136.22;5078661;28;20036;-90
2021/04/11 09:10:50;;;;;;;1.75;0.50;;;;;;;32.77;12.16;98131.97;5083399;28;20029;-89
2021/04/11 09:13:51;;;;;;;0.90;0.65;;;;;;;33.63;11.97;98137.19;5083518;28;20089;-88
2021/04/11 09:16:35;;;;;;;;;;;;;;;33.05;10.50;98135.31;5090084;28;20059;-88
2021/04/11 09:19:13;;;;;;;0.65;0.30;;;;;;;34.02;10.70;98142.06;5082347;28;20002;-89
2021/04/11 09:22:07;;;;;;;0.30;0.30;;;;;;;34.16;11.23;98139.63;5083018;28;20032;-89
2021/04/11 09:24:45;;;;;;;1.35;0.47;;;;;;;33.43;11.23;98138.72;5069192;28;20063;-89
2021/04/11 09:27:45;;;;;;;0.82;0.52;;;;;;;32.69;10.78;98134.47;5084967;28;20422;-87
2021/04/11 09:30:36;;;;;;;0.20;0.20;;;;;;;33.69;11.86;98121.72;5086662;28;20036;-86
2021/04/11 09:33:24;;;;;;;0.68;0.38;;;;;;;33.54;11.64;98132.41;5079434;28;20377;-88
2021/04/11 09:36:05;;;;;;;3.22;0.60;;;;;;;34.01;11.17;98126.25;5086727;28;20032;-87
2021/04/11 09:38:31;;;;;;;;;;;;;;;34.04;10.27;98122.44;5086349;28;20032;-87
2021/04/11 09:41:26;;;;;;;1.10;0.40;;;;;;;34.32;10.12;98128.41;5085905;28;20355;-87
2021/04/11 09:44:02;;;;;;;1.15;0.20;;;;;;;34.80;10.38;98122.13;5080260;28;20514;-87
2021/04/11 09:46:56;;;;;;;1.75;0.50;;;;;;;34.74;10.36;98111.44;5087321;28;20042;-87
2021/04/11 09:49:56;;;;;;;1.02;0.20;;;;;;;35.02;10.37;98111.69;5090361;28;20031;-88
2021/04/11 09:52:35;;;;;;;1.08;0.25;;;;;;;34.99;9.57;98109.03;5089283;28;20413;-88
2021/04/11 09:55:30;;;;;;;0.30;0.30;;;;;;;35.00;9.87;98102.81;5081499;28;20043;-89
2021/04/11 09:58:41;;;;;;;2.25;0.25;;;;;;;34.23;9.67;98102.16;5082152;28;20028;-91
2021/04/11 10:01:41;;;;;;;0.80;0.35;;;;;;;34.43;10.16;98088.59;5041273;28;20119;-89
2021/04/11 10:04:33;;;;;;;1.00;0.30;;;;;;;34.76;10.28;98108.09;5080420;28;20028;-90
2021/04/11 10:07:25;;;;;;;0.52;0.30;;;;;;;34.90;8.74;98101.44;5079217;28;20043;-90
2021/04/11 10:10:19;;;;;;;0.28;0.20;;;;;;;35.15;10.13;98108.41;5079332;28;20108;-88
2021/04/11 10:12:56;;;;;;;0.80;0.20;;;;;;;34.53;10.92;98097.78;5079623;28;20036;-88
2021/04/11 10:15:30;;;;;;;0.80;0.20;;;;;;;34.95;10.39;98103.56;5066467;28;20434;-88
2021/04/11 10:18:35;;;;;;;0.52;0.30;;;;;;;34.64;9.05;98103.56;5070391;28;20024;-90
2021/04/11 10:21:31;;;;;;;0.47;0.13;;;;;;;34.52;9.59;98116.13;5042496;28;20049;-89
2021/04/11 10:24:15;;;;;;;0.43;0.20;;;;;;;34.74;10.47;98117.16;5064407;28;20037;-92
2021/04/11 10:27:04;;;;;;;0.55;0.30;;;;;;;34.99;10.52;98120.44;5060675;28;20033;-91
2021/04/11 10:29:33;;;;;;;0.55;0.35;;;;;;;34.54;10.12;98107.91;5068164;28;20033;-88
2021/04/11 10:32:41;;;;;;;0.98;0.30;;;;;;;34.33;9.82;98109.25;5065953;28;20037;-91
2021/04/11 10:35:19;;;;;;;0.68;0.30;;;;;;;34.70;10.92;98113.72;5041549;28;20052;-91
2021/04/11 10:37:50;;;;;;;0.60;0.10;;;;;;;34.79;9.83;98114.84;5068702;28;20382;-91
2021/04/11 10:40:16;;;;;;;;;;;;;;;34.89;8.76;98117.03;5064303;28;20045;-93
2021/04/11 10:42:58;;;;;;;0.32;0.10;;;;;;;35.41;9.66;98117.59;5070263;28;19917;-92
2021/04/11 10:45:26;;;;;;;1.55;0.28;;;;;;;35.61;9.86;98114.63;5066703;28;20500;-92
2021/04/11 10:48:29;;;;;;;0.43;0.43;;;;;;;35.68;9.80;98110.50;5066925;28;20527;-91
2021/04/11 10:50:55;;;;;;;1.48;0.30;;;;;;;35.02;10.84;98105.19;5069163;28;20115;-90
2021/04/11 10:53:49;;;;;;;0.65;0.20;;;;;;;35.07;9.86;98113.00;5062957;28;20097;-87
2021/04/11 10:56:32;;;;;;;0.20;0.20;;;;;;;35.93;9.98;98115.25;5071189;28;20107;-87
2021/04/11 10:59:30;;;;;;;0.28;0.10;;;;;;;35.93;9.37;98115.25;5066128;28;20032;-87
2021/04/11 11:02:22;;;;;;;0.43;0.20;;;;;;;35.78;9.82;98112.59;5069238;28;20047;-88
2021/04/11 11:05:22;;;;;;;0.90;0.30;;;;;;;35.34;9.58;98095.25;5063540;28;20036;-88
2021/04/11 11:08:15;;;;;;;0.98;0.10;;;;;;;35.47;9.79;98115.59;5064635;28;20052;-88
2021/04/11 11:10:50;;;;;;;0.80;0.30;;;;;;;35.76;10.60;98123.78;5068059;28;20043;-88
2021/04/11 11:13:27;;;;;;;4.10;0.25;;;;;;;34.89;10.69;98124.78;5068134;28;20109;-91
2021/04/11 11:16:12;;;;;;;0.55;0.30;;;;;;;34.63;10.98;98122.00;5040488;28;20044;-90
2021/04/11 11:19:20;;;;;;;1.42;0.28;;;;;;;35.25;9.91;98129.72;5034375;28;20438;-89
2021/04/11 11:21:49;;;;;;;1.70;0.20;;;;;;;34.91;10.37;98122.22;4984610;28;20092;-89
2021/04/11 11:24:55;;;;;;;1.55;0.20;;;;;;;35.26;10.12;98128.44;4982087;28;20591;-88
2021/04/11 11:27:48;;;;;;;1.40;0.28;;;;;;;35.96;10.15;98122.81;5042385;28;20496;-89
2021/04/11 11:30:26;;;;;;;1.73;0.30;;;;;;;35.24;10.42;98128.94;5061540;28;20032;-89
2021/04/11 11:33:02;;;;;;;1.65;0.20;;;;;;;35.04;10.41;98123.38;5060017;28;20036;-92
2021/04/11 11:35:29;;;;;;;1.20;0.30;;;;;;;34.93;11.13;98123.25;5062263;28;20057;-89
2021/04/11 11:37:59;;;;;;;0.52;0.20;;;;;;;34.99;11.89;98120.44;5064975;28;20036;-88
2021/04/11 11:40:34;;;;;;;0.10;0.10;;;;;;;35.42;11.18;98114.25;5067815;28;20789;-92
2021/04/11 11:43:12;;;;;;;0.65;0.30;;;;;;;35.57;10.86;98113.31;5071634;28;20074;-95
2021/04/11 11:45:47;;;;;;;1.05;0.20;;;;;;;35.33;10.30;98116.53;5069479;28;20044;-91
2021/04/11 11:48:40;;;;;;;0.25;0.17;;;;;;;36.01;10.45;98116.38;5067862;28;20532;-87
2021/04/11 11:51:44;;;;;;;0.30;0.20;;;;;;;36.30;10.24;98110.19;5070701;28;20609;-91
2021/04/11 11:54:10;;;;;;;0.30;0.20;;;;;;;36.64;9.92;98108.94;5058735;28;20418;-92
2021/04/11 11:56:48;;;;;;;0.80;0.30;;;;;;;35.41;10.91;98115.53;5068651;28;20040;-90
2021/04/11 11:59:42;;;;;;;0.52;0.20;;;;;;;35.58;11.10;98118.50;5075836;28;20544;-89
2021/04/11 12:02:43;;;;;;;0.80;0.20;;;;;;;35.86;10.82;98130.06;5079453;28;20157;-91
2021/04/11 12:05:24;;;;;;;0.75;0.20;;;;;;;35.03;10.07;98141.78;5032007;28;20055;-90
2021/04/11 12:07:53;;;;;;;;;;;;;;;34.99;10.48;98137.56;5074302;28;20051;-89
2021/04/11 12:10:28;;;;;;;0.50;0.30;;;;;;;34.14;12.03;98134.47;5073520;28;19960;-87
2021/04/11 12:13:13;;;;;;;0.15;0.10;;;;;;;35.15;11.40;98139.81;5074113;28;20439;-89
2021/04/11 12:15:49;;;;;;;0.10;0.10;;;;;;;35.82;11.30;98130.31;5064683;28;20115;-88
2021/04/11 12:18:22;;;;;;;0.30;0.30;;;;;;;35.15;12.08;98128.38;5069176;28;20573;-88
2021/04/11 12:21:03;;;;;;;0.20;0.10;;;;;;;35.53;11.61;98127.03;5058191;28;20063;-89
2021/04/11 12:23:57;;;;;;;0.40;0.10;;;;;;;35.33;11.20;98125.91;5066824;28;20033;-90
2021/04/11 12:26:32;;;;;;;0.77;0.20;;;;;;;34.57;11.72;98127.63;5063901;28;20086;-88
2021/04/11 12:29:07;;;;;;;0.20;0.10;;;;;;;34.95;11.51;98120.69;5062780;28;20044;-89
2021/04/11 12:31:58;;;;;;;0.52;0.13;;;;;;;34.77;11.45;98131.69;5067604;28;20024;-87
2021/04/11 12:34:55;;;;;;;0.52;0.10;;;;;;;33.99;11.87;98131.66;5072092;28;20420;-89